Time;durP1;ratioP1;P1;durP2;ratioP2;P2;SDS_P1;SDS_P2;PMS_P1;PMS_P2;Temp;Humidity;BMP_temperature;BMP_pressure;BME280_temperature;BME280_humidity;BME280_pressure;Samples;Min_cycle;Max_cycle;Signal;HPM_P1;HPM_P2
2023/07/10 00:00:05;;;;;;;3.85;2.63;;;23.40;68.00;;;;;;5091447;28;20080;-36
2023/07/10 00:02:32;;;;;;;4.18;2.45;;;;;;;;;;5092418;28;20078;-36
2023/07/10 00:04:59;;;;;;;3.80;2.53;;;23.80;79.90;;;;;;5092778;28;20048;-39
2023/07/10 00:07:25;;;;;;;5.13;2.50;;;25.20;74.40;;;;;;5092704;28;20134;-39
2023/07/10 00:09:53;;;;;;;3.88;2.75;;;24.00;65.30;;;;;;5092494;28;20443;-35
2023/07/10 00:12:21;;;;;;;3.53;2.70;;;24.00;65.30;;;;;;5092546;28;20135;-35
2023/07/10 00:14:48;;;;;;;3.83;2.58;;;;;;;;;;5088788;28;20128;-34
2023/07/10 00:17:15;;;;;;;5.30;3.28;;;24.00;80.20;;;;;;5081951;28;20127;-34
2023/07/10 00:19:42;;;;;;;3.45;2.53;;;24.70;81.10;;;;;;5072396;28;20131;-39
2023/07/10 00:22:09;;;;;;;4.07;2.40;;;23.30;75.60;;;;;;5072077;28;20132;-37
2023/07/10 00:24:35;;;;;;;4.03;2.83;;;24.30;80.00;;;;;;5072206;28;20059;-35
2023/07/10 00:27:06;;;;;;;5.07;2.95;;;24.00;80.00;;;;;;5072133;28;20049;-36
2023/07/10 00:29:33;;;;;;;4.25;2.85;;;;;;;;;;5071967;28;20127;-36
2023/07/10 00:32:02;;;;;;;5.57;2.75;;;23.90;80.00;;;;;;5073416;28;20106;-36
2023/07/10 00:34:29;;;;;;;4.05;2.65;;;24.20;65.50;;;;;;5071999;28;20092;-37
2023/07/10 00:36:55;;;;;;;3.53;2.40;;;24.00;80.30;;;;;;5080645;28;20128;-39
2023/07/10 00:39:23;;;;;;;5.10;2.72;;;24.50;81.10;;;;;;5092099;28;20067;-38
2023/07/10 00:41:52;;;;;;;2.72;2.20;;;24.00;80.70;;;;;;5092038;28;20135;-38
2023/07/10 00:44:21;;;;;;;5.38;3.03;;;24.00;65.40;;;;;;5092144;28;20048;-36
2023/07/10 00:46:49;;;;;;;3.15;2.65;;;24.90;71.50;;;;;;5087962;28;20085;-36
2023/07/10 00:49:18;;;;;;;2.58;2.25;;;23.10;74.20;;;;;;5071942;28;20059;-35
2023/07/10 00:51:49;;;;;;;3.45;2.53;;;24.00;65.40;;;;;;5071787;28;20044;-34
2023/07/10 00:54:21;;;;;;;3.95;2.67;;;23.90;74.60;;;;;;5090333;28;20052;-36
2023/07/10 00:56:48;;;;;;;4.07;2.83;;;;;;;;;;5092016;28;20123;-34
2023/07/10 00:59:23;;;;;;;3.97;2.75;;;23.50;79.70;;;;;;5092097;28;20052;-36
2023/07/10 01:02:19;;;;;;;4.43;2.42;;;24.80;79.80;;;;;;5091927;28;20135;-36
2023/07/10 01:04:47;;;;;;;3.22;2.50;;;24.00;65.40;;;;;;5075088;28;20127;-35
2023/07/10 01:07:16;;;;;;;3.78;2.65;;;23.80;75.10;;;;;;5092006;28;20131;-35
2023/07/10 01:09:44;;;;;;;4.53;2.58;;;24.20;78.50;;;;;;5092009;28;20054;-36
2023/07/10 01:12:11;;;;;;;5.20;2.72;;;;;;;;;;5091436;28;20556;-35
2023/07/10 01:14:39;;;;;;;4.45;2.60;;;;;;;;;;5091461;28;20134;-36
2023/07/10 01:17:07;;;;;;;3.92;2.72;;;23.80;69.60;;;;;;5071662;28;20470;-33
2023/07/10 01:19:34;;;;;;;5.68;2.80;;;23.90;79.70;;;;;;5071714;28;20056;-38
2023/07/10 01:22:02;;;;;;;3.60;2.55;;;24.00;65.30;;;;;;5071645;28;20136;-39
2023/07/10 01:24:28;;;;;;;3.50;2.75;;;23.30;74.00;;;;;;5071378;28;20136;-35
2023/07/10 01:26:56;;;;;;;4.13;3.00;;;24.60;80.00;;;;;;5071364;28;20045;-36
2023/07/10 01:29:23;;;;;;;4.85;2.65;;;24.00;65.30;;;;;;5071213;28;20565;-34
2023/07/10 01:31:50;;;;;;;5.43;3.03;;;23.80;79.80;;;;;;5071642;28;20477;-38
2023/07/10 01:34:17;;;;;;;4.22;2.70;;;24.40;70.80;;;;;;5070992;28;20127;-35
2023/07/10 01:36:43;;;;;;;3.65;2.50;;;23.60;79.80;;;;;;5078393;28;20127;-36
2023/07/10 01:39:28;;;;;;;4.82;2.80;;;23.80;80.00;;;;;;5091779;28;20135;-36
2023/07/10 01:41:55;;;;;;;3.58;2.60;;;;;;;;;;5091439;28;20127;-39
2023/07/10 01:44:23;;;;;;;5.03;2.67;;;24.30;80.30;;;;;;5090672;28;20139;-37
2023/07/10 01:46:51;;;;;;;4.00;2.70;;;;;;;;;;5071229;28;20129;-35
2023/07/10 01:49:17;;;;;;;5.20;3.00;;;23.80;71.10;;;;;;5071529;28;20131;-33
2023/07/10 01:51:44;;;;;;;3.72;2.50;;;22.90;79.30;;;;;;5071286;28;20128;-35
2023/07/10 01:54:12;;;;;;;5.38;2.75;;;23.50;74.00;;;;;;5089038;28;20052;-38
2023/07/10 01:56:40;;;;;;;5.20;2.83;;;23.70;75.80;;;;;;5091322;28;20127;-36
2023/07/10 01:59:06;;;;;;;3.95;2.85;;;23.70;68.80;;;;;;5093760;28;20135;-39
2023/07/10 02:01:33;;;;;;;4.88;2.83;;;23.70;79.70;;;;;;5094424;28;20139;-37
2023/07/10 02:04:00;;;;;;;4.28;2.50;;;23.90;75.80;;;;;;5094816;28;20139;-36
2023/07/10 02:06:26;;;;;;;6.32;2.85;;;23.80;80.00;;;;;;5094998;28;20047;-38
2023/07/10 02:08:53;;;;;;;5.53;2.83;;;23.50;80.40;;;;;;5094902;28;20139;-39
2023/07/10 02:11:20;;;;;;;4.50;2.80;;;24.10;70.80;;;;;;5094906;28;20134;-36
2023/07/10 02:13:48;;;;;;;5.60;2.70;;;23.90;65.10;;;;;;5094518;28;20054;-38
2023/07/10 02:16:15;;;;;;;5.10;2.90;;;22.80;79.30;;;;;;5095023;28;20123;-39
2023/07/10 02:18:41;;;;;;;3.78;2.80;;;23.20;79.40;;;;;;5083466;28;20048;-38
2023/07/10 02:21:08;;;;;;;4.68;2.88;;;;;;;;;;5074619;28;20048;-33
2023/07/10 02:23:36;;;;;;;4.97;3.13;;;;;;;;;;5074982;28;20127;-35
2023/07/10 02:26:02;;;;;;;3.30;2.60;;;24.30;67.90;;;;;;5094743;28;20048;-36
2023/07/10 02:28:29;;;;;;;4.20;2.85;;;23.80;79.70;;;;;;5094549;28;20044;-36
2023/07/10 02:30:57;;;;;;;3.45;2.53;;;23.80;69.20;;;;;;5094660;28;20048;-35
2023/07/10 02:33:24;;;;;;;4.43;2.50;;;23.90;79.80;;;;;;5084909;28;20583;-38
2023/07/10 02:35:51;;;;;;;6.63;2.90;;;;;;;;;;5073860;28;20048;-36
2023/07/10 02:38:18;;;;;;;3.58;2.72;;;;;;;;;;5094436;28;20127;-37
2023/07/10 02:40:45;;;;;;;4.65;3.00;;;;;;;;;;5094238;28;20127;-35
2023/07/10 02:43:12;;;;;;;4.40;2.80;;;;;;;;;;5094402;28;20130;-37
2023/07/10 02:45:39;;;;;;;3.70;3.00;;;;;;;;;;5094238;28;20054;-36
2023/07/10 02:48:07;;;;;;;3.75;2.90;;;24.10;80.10;;;;;;5093381;28;20048;-35
2023/07/10 02:50:34;;;;;;;3.95;2.97;;;24.30;80.10;;;;;;5074434;28;20127;-38
2023/07/10 02:53:01;;;;;;;4.28;2.95;;;;;;;;;;5081864;28;20138;-39
2023/07/10 02:55:28;;;;;;;4.93;3.20;;;23.60;80.40;;;;;;5094191;28;20052;-39
2023/07/10 02:57:55;;;;;;;5.80;3.03;;;23.20;79.80;;;;;;5093045;28;20537;-36
2023/07/10 03:00:22;;;;;;;6.25;2.90;;;24.90;79.30;;;;;;5094008;28;20126;-36
2023/07/10 03:02:49;;;;;;;5.40;3.33;;;24.00;80.70;;;;;;5093808;28;20127;-35
2023/07/10 03:05:17;;;;;;;4.00;3.00;;;23.20;69.70;;;;;;5083543;28;20136;-39
2023/07/10 03:07:44;;;;;;;4.15;3.03;;;23.50;71.40;;;;;;5073574;28;20135;-38
2023/07/10 03:10:10;;;;;;;5.35;3.13;;;23.70;79.70;;;;;;5072754;28;20049;-39
2023/07/10 03:12:37;;;;;;;4.32;2.92;;;24.20;80.10;;;;;;5073474;28;20048;-38
2023/07/10 03:15:05;;;;;;;3.30;3.00;;;24.10;80.70;;;;;;5073410;28;20076;-36
2023/07/10 03:17:32;;;;;;;4.82;3.00;;;23.40;68.20;;;;;;5073644;28;20128;-35
2023/07/10 03:19:59;;;;;;;4.65;3.00;;;23.60;64.90;;;;;;5074437;28;20059;-37
2023/07/10 03:22:27;;;;;;;4.93;3.28;;;23.80;65.00;;;;;;5073170;28;20127;-36
2023/07/10 03:24:54;;;;;;;4.25;3.20;;;;;;;;;;5073327;28;20132;-35
2023/07/10 03:27:21;;;;;;;3.95;3.20;;;23.60;79.80;;;;;;5073128;28;20611;-38
2023/07/10 03:29:48;;;;;;;5.13;3.33;;;23.70;80.60;;;;;;5073245;28;20128;-36
2023/07/10 03:32:14;;;;;;;5.28;3.17;;;23.40;72.30;;;;;;5072840;28;20565;-35
2023/07/10 03:34:41;;;;;;;4.55;3.30;;;24.30;79.80;;;;;;5072983;28;20127;-38
2023/07/10 03:37:08;;;;;;;4.28;3.28;;;24.20;80.00;;;;;;5072421;28;20135;-38
2023/07/10 03:39:36;;;;;;;4.43;3.22;;;23.80;72.10;;;;;;5073092;28;20053;-34
2023/07/10 03:42:03;;;;;;;5.47;3.47;;;23.60;79.10;;;;;;5073111;28;20059;-37
2023/07/10 03:44:30;;;;;;;6.65;3.47;;;23.70;80.10;;;;;;5072879;28;20161;-38
2023/07/10 03:46:57;;;;;;;4.35;3.30;;;23.40;71.90;;;;;;5072587;28;20051;-36
2023/07/10 03:49:24;;;;;;;4.10;3.30;;;23.60;80.00;;;;;;5072941;28;20048;-35
2023/07/10 03:51:51;;;;;;;5.72;3.00;;;23.80;80.40;;;;;;5072786;28;20135;-37
2023/07/10 03:54:18;;;;;;;3.67;3.05;;;24.10;80.40;;;;;;5085312;28;20123;-38
2023/07/10 03:56:46;;;;;;;6.10;3.67;;;23.80;64.90;;;;;;5089758;28;20041;-38
2023/07/10 03:59:13;;;;;;;5.88;3.63;;;22.90;79.40;;;;;;5082366;28;20058;-36
2023/07/10 04:01:40;;;;;;;4.82;3.08;;;23.10;76.30;;;;;;5083419;28;20461;-39
2023/07/10 04:04:06;;;;;;;4.63;3.47;;;24.00;80.70;;;;;;5081173;28;20501;-36
2023/07/10 04:06:34;;;;;;;5.05;3.58;;;;;;;;;;5082211;28;20050;-34
2023/07/10 04:09:01;;;;;;;3.78;3.08;;;;;;;;;;5081709;28;20126;-37
2023/07/10 04:11:27;;;;;;;4.97;3.33;;;23.80;64.90;;;;;;5081813;28;20132;-35
2023/07/10 04:13:55;;;;;;;4.38;3.15;;;23.40;80.40;;;;;;5081732;28;20556;-39
2023/07/10 04:16:23;;;;;;;4.90;3.65;;;24.30;80.40;;;;;;5082865;28;20119;-35
2023/07/10 04:18:51;;;;;;;3.50;2.88;;;24.10;80.20;;;;;;5081671;28;20127;-36
2023/07/10 04:21:19;;;;;;;4.65;3.38;;;23.70;64.80;;;;;;5080757;28;20058;-35
2023/07/10 04:23:46;;;;;;;3.67;2.90;;;;;;;;;;5080246;28;20050;-33
2023/07/10 04:26:15;;;;;;;3.78;3.13;;;23.30;79.40;;;;;;5079991;28;20411;-37
2023/07/10 04:28:42;;;;;;;4.15;2.70;;;24.10;70.30;;;;;;5082942;28;20127;-36
2023/07/10 04:31:10;;;;;;;4.10;3.40;;;23.40;66.90;;;;;;5081460;28;20132;-38
2023/07/10 04:33:37;;;;;;;4.93;2.92;;;23.50;79.50;;;;;;5080775;28;20124;-35
2023/07/10 04:36:04;;;;;;;3.72;3.08;;;;;;;;;;5079530;28;20044;-34
2023/07/10 04:38:31;;;;;;;4.75;3.03;;;23.80;80.50;;;;;;5080505;28;20123;-37
2023/07/10 04:40:58;;;;;;;4.35;3.15;;;23.70;79.60;;;;;;5081621;28;20125;-35
2023/07/10 04:43:26;;;;;;;4.40;3.45;;;24.10;80.20;;;;;;5079541;28;20130;-38
2023/07/10 04:45:53;;;;;;;5.03;3.15;;;23.60;65.70;;;;;;5082785;28;20130;-35
2023/07/10 04:48:22;;;;;;;4.97;3.30;;;24.10;80.70;;;;;;5074386;28;20048;-38
2023/07/10 04:50:48;;;;;;;5.00;3.15;;;22.80;79.20;;;;;;5084624;28;20139;-39
2023/07/10 04:53:15;;;;;;;6.10;3.20;;;;;;;;;;5090844;28;20055;-35
2023/07/10 04:55:43;;;;;;;4.80;3.20;;;24.30;80.00;;;;;;5081122;28;20128;-39
2023/07/10 04:58:09;;;;;;;3.15;2.80;;;23.90;80.60;;;;;;5080177;28;20072;-35
2023/07/10 05:00:36;;;;;;;5.03;3.25;;;;;;;;;;5077256;28;20123;-35
2023/07/10 05:03:03;;;;;;;5.38;3.65;;;23.80;70.30;;;;;;5071811;28;20083;-38
2023/07/10 05:05:32;;;;;;;4.60;3.30;;;24.80;80.30;;;;;;5071781;28;20132;-38
2023/07/10 05:07:58;;;;;;;4.72;3.35;;;23.20;78.90;;;;;;5071548;28;20481;-38
2023/07/10 05:10:25;;;;;;;4.55;3.47;;;;;;;;;;5071908;28;20135;-34
2023/07/10 05:12:52;;;;;;;3.95;3.08;;;24.10;79.90;;;;;;5072642;28;20044;-36
2023/07/10 05:15:20;;;;;;;4.75;3.20;;;;;;;;;;5076680;28;20380;-37
2023/07/10 05:17:47;;;;;;;3.65;2.70;;;23.20;80.30;;;;;;5081662;28;20041;-35
2023/07/10 05:20:14;;;;;;;5.10;3.17;;;23.60;79.70;;;;;;5079668;28;20056;-35
2023/07/10 05:22:42;;;;;;;4.75;3.60;;;23.80;79.90;;;;;;5080933;28;20127;-35
2023/07/10 05:25:09;;;;;;;5.53;3.45;;;23.20;79.90;;;;;;5081942;28;20083;-35
2023/07/10 05:27:37;;;;;;;6.93;2.92;;;23.90;67.90;;;;;;5080138;28;20047;-37
2023/07/10 05:30:05;;;;;;;4.57;3.30;;;23.70;64.80;;;;;;5079697;28;20049;-33
2023/07/10 05:32:32;;;;;;;3.65;3.25;;;;;;;;;;5080003;28;20135;-35
2023/07/10 05:34:59;;;;;;;4.28;3.40;;;23.80;80.00;;;;;;5085707;28;20548;-36
2023/07/10 05:37:26;;;;;;;4.53;3.42;;;24.80;80.30;;;;;;5082407;28;20123;-35
2023/07/10 05:39:54;;;;;;;3.83;2.92;;;23.60;79.70;;;;;;5084014;28;20440;-38
2023/07/10 05:42:21;;;;;;;3.65;3.00;;;23.30;80.10;;;;;;5085615;28;20127;-38
2023/07/10 05:44:47;;;;;;;4.20;3.22;;;23.00;80.20;;;;;;5081587;28;20072;-39
2023/07/10 05:47:14;;;;;;;4.53;3.05;;;;;;;;;;5086194;28;20041;-35
2023/07/10 05:49:41;;;;;;;3.65;3.25;;;23.40;79.50;;;;;;5084105;28;20067;-36
2023/07/10 05:52:08;;;;;;;3.95;3.05;;;;;;;;;;5091055;28;20211;-39
2023/07/10 05:54:36;;;;;;;3.88;3.10;;;;;;;;;;5077961;28;20075;-36
2023/07/10 05:57:04;;;;;;;5.43;3.65;;;23.70;64.70;;;;;;5077494;28;20054;-35
2023/07/10 05:59:31;;;;;;;6.20;3.65;;;23.50;73.50;;;;;;5077283;28;20124;-36
2023/07/10 06:01:58;;;;;;;5.40;3.85;;;23.70;79.50;;;;;;5074030;28;20127;-36
2023/07/10 06:04:24;;;;;;;4.82;3.25;;;23.10;79.30;;;;;;5077395;28;20127;-39
2023/07/10 06:06:51;;;;;;;4.00;3.35;;;22.80;68.70;;;;;;5076931;28;20153;-38
2023/07/10 06:09:18;;;;;;;4.72;3.67;;;24.10;80.70;;;;;;5074095;28;20565;-36
2023/07/10 06:11:45;;;;;;;7.38;3.70;;;24.60;80.40;;;;;;5074506;28;20135;-38
2023/07/10 06:14:14;;;;;;;8.88;4.80;;;23.20;76.80;;;;;;5073916;28;20449;-36
2023/07/10 06:16:40;;;;;;;6.05;3.88;;;23.00;80.20;;;;;;5075308;28;20040;-37
2023/07/10 06:19:07;;;;;;;7.80;4.35;;;;;;;;;;5075934;28;20504;-33
2023/07/10 06:21:34;;;;;;;6.00;3.72;;;;;;;;;;5074548;28;20544;-38
2023/07/10 06:24:01;;;;;;;5.00;3.70;;;23.50;79.60;;;;;;5074660;28;20079;-38
2023/07/10 06:26:28;;;;;;;5.00;3.28;;;23.40;76.40;;;;;;5074509;28;20413;-39
2023/07/10 06:28:56;;;;;;;4.85;3.30;;;23.40;79.50;;;;;;5085116;28;20127;-37
2023/07/10 06:31:24;;;;;;;5.03;3.88;;;23.40;79.50;;;;;;5094692;28;20093;-38
2023/07/10 06:33:51;;;;;;;4.65;3.35;;;22.60;79.20;;;;;;5094640;28;20044;-34
2023/07/10 06:36:18;;;;;;;7.13;3.67;;;;;;;;;;5093848;28;20123;-39
2023/07/10 06:38:44;;;;;;;5.68;3.70;;;22.80;79.10;;;;;;5094752;28;20127;-35
2023/07/10 06:41:12;;;;;;;4.70;3.40;;;23.50;79.70;;;;;;5094550;28;20576;-37
2023/07/10 06:43:39;;;;;;;5.40;4.18;;;23.30;68.10;;;;;;5086106;28;20105;-39
2023/07/10 06:46:05;;;;;;;4.72;3.40;;;23.70;80.30;;;;;;5073062;28;20457;-35
2023/07/10 06:48:33;;;;;;;5.25;3.20;;;23.60;64.70;;;;;;5074022;28;20128;-35
2023/07/10 06:51:01;;;;;;;5.10;3.50;;;;;;;;;;5074045;28;20052;-35
2023/07/10 06:53:28;;;;;;;4.93;3.25;;;23.10;79.60;;;;;;5085997;28;20047;-38
2023/07/10 06:55:55;;;;;;;4.90;3.40;;;23.60;64.70;;;;;;5094258;28;20058;-36
2023/07/10 06:58:22;;;;;;;5.10;3.42;;;24.50;69.70;;;;;;5084367;28;20040;-35
2023/07/10 07:00:49;;;;;;;4.25;3.20;;;;;;;;;;5075045;28;20121;-36
2023/07/10 07:03:16;;;;;;;4.15;2.90;;;24.00;79.90;;;;;;5073665;28;20131;-36
2023/07/10 07:05:44;;;;;;;5.22;3.63;;;23.60;64.70;;;;;;5073788;28;20120;-39
2023/07/10 07:08:12;;;;;;;5.03;3.33;;;;;;;;;;5073882;28;20127;-35
2023/07/10 07:10:41;;;;;;;4.95;3.28;;;23.20;67.00;;;;;;5074592;28;20058;-34
2023/07/10 07:13:07;;;;;;;5.65;2.80;;;23.90;79.20;;;;;;5082768;28;20127;-36
2023/07/10 07:15:34;;;;;;;4.65;2.80;;;23.90;80.10;;;;;;5079991;28;20075;-36
2023/07/10 07:18:01;;;;;;;3.78;2.80;;;;;;;;;;5072610;28;20044;-37
2023/07/10 07:20:28;;;;;;;5.45;2.97;;;;;;;;;;5072682;28;20076;-36
2023/07/10 07:22:56;;;;;;;3.70;2.80;;;23.60;64.70;;;;;;5072349;28;20127;-34
2023/07/10 07:25:23;;;;;;;6.63;3.25;;;;;;;;;;5075926;28;20537;-36
2023/07/10 07:27:50;;;;;;;4.47;3.00;;;23.00;80.10;;;;;;5093425;28;20507;-37
2023/07/10 07:30:17;;;;;;;5.80;2.83;;;23.70;79.80;;;;;;5093540;28;20083;-39
2023/07/10 07:32:44;;;;;;;4.50;2.60;;;23.10;72.00;;;;;;5073857;28;20084;-36
2023/07/10 07:35:11;;;;;;;3.13;2.50;;;23.40;80.30;;;;;;5073251;28;20094;-39
2023/07/10 07:37:38;;;;;;;4.47;2.70;;;23.30;72.40;;;;;;5087195;28;20066;-35
2023/07/10 07:40:09;;;;;;;4.40;2.72;;;23.60;79.50;;;;;;5082481;28;20131;-39
2023/07/10 07:42:36;;;;;;;5.72;2.80;;;24.00;67.90;;;;;;5092323;28;20044;-34
2023/07/10 07:45:03;;;;;;;4.35;2.60;;;23.60;79.80;;;;;;5086001;28;20056;-36
2023/07/10 07:47:30;;;;;;;3.88;2.58;;;23.10;74.70;;;;;;5072948;28;20045;-37
2023/07/10 07:49:56;;;;;;;4.97;2.28;;;23.70;71.80;;;;;;5075352;28;20080;-35
2023/07/10 07:52:23;;;;;;;4.25;2.33;;;23.40;79.30;;;;;;5085452;28;20127;-37
2023/07/10 07:54:51;;;;;;;3.60;2.30;;;23.20;79.50;;;;;;5090499;28;20043;-37
2023/07/10 07:57:22;;;;;;;3.80;2.20;;;23.50;80.00;;;;;;5086805;28;20040;-38
2023/07/10 07:59:49;;;;;;;2.83;2.40;;;22.80;76.00;;;;;;5082394;28;20044;-37
2023/07/10 08:02:16;;;;;;;4.10;2.10;;;;;;;;;;5084800;28;20160;-36
2023/07/10 08:04:43;;;;;;;4.20;2.45;;;23.70;66.70;;;;;;5078213;28;20131;-35
2023/07/10 08:07:10;;;;;;;3.97;2.58;;;24.50;79.60;;;;;;5084034;28;20044;-35
2023/07/10 08:09:37;;;;;;;4.13;2.30;;;;;;;;;;5083852;28;20051;-37
2023/07/10 08:12:04;;;;;;;3.65;2.40;;;23.70;65.70;;;;;;5081767;28;20048;-34
2023/07/10 08:14:32;;;;;;;3.92;2.40;;;23.80;64.40;;;;;;5084052;28;20552;-35
2023/07/10 08:16:59;;;;;;;6.13;2.40;;;;;;;;;;5083252;28;20131;-35
2023/07/10 08:19:26;;;;;;;3.70;2.30;;;24.50;79.60;;;;;;5082166;28;20123;-31
2023/07/10 08:21:54;;;;;;;3.33;1.95;;;24.00;78.70;;;;;;5081255;28;20123;-31
2023/07/10 08:24:21;;;;;;;3.53;2.30;;;23.70;69.30;;;;;;5077307;28;20048;-34
2023/07/10 08:26:48;;;;;;;3.45;2.13;;;24.00;78.80;;;;;;5072080;28;20139;-31
2023/07/10 08:29:22;;;;;;;4.80;1.88;;;23.80;79.00;;;;;;5072343;28;20135;-30
2023/07/10 08:31:50;;;;;;;3.95;2.20;;;24.40;78.90;;;;;;5072208;28;20127;-31
2023/07/10 08:34:17;;;;;;;3.10;2.10;;;25.10;79.30;;;;;;5090674;28;20044;-33
2023/07/10 08:36:44;;;;;;;3.38;1.80;;;;;;;;;;5090272;28;20568;-32
2023/07/10 08:39:11;;;;;;;2.88;2.00;;;24.10;78.50;;;;;;5092362;28;20040;-30
2023/07/10 08:41:38;;;;;;;3.97;1.85;;;;;;;;;;5091624;28;20132;-34
2023/07/10 08:44:05;;;;;;;4.55;2.00;;;23.90;78.50;;;;;;5084794;28;20048;-30
2023/07/10 08:46:32;;;;;;;3.50;2.03;;;;;;;;;;5072239;28;20136;-31
2023/07/10 08:49:03;;;;;;;4.03;2.00;;;24.10;66.20;;;;;;5075188;28;20093;-30
2023/07/10 08:51:37;;;;;;;3.70;2.00;;;24.20;63.40;;;;;;5082190;28;20123;-35
2023/07/10 08:54:05;;;;;;;2.70;1.80;;;24.60;64.50;;;;;;5071006;28;20131;-33
2023/07/10 08:56:34;;;;;;;3.28;1.92;;;24.30;63.30;;;;;;5074416;28;20048;-34
2023/07/10 08:59:03;;;;;;;3.17;2.00;;;24.40;73.60;;;;;;5071165;28;20044;-31
2023/07/10 09:01:32;;;;;;;2.75;2.08;;;24.10;77.60;;;;;;5070805;28;20051;-31
2023/07/10 09:04:00;;;;;;;2.45;1.70;;;24.40;63.00;;;;;;5070725;28;20040;-35
2023/07/10 09:06:34;;;;;;;3.53;1.67;;;24.30;76.90;;;;;;5070302;28;20132;-31
2023/07/10 09:09:01;;;;;;;3.00;1.70;;;;;;;;;;5075992;28;20050;-31
2023/07/10 09:11:29;;;;;;;3.25;1.80;;;24.70;78.50;;;;;;5086118;28;20119;-30
2023/07/10 09:13:58;;;;;;;2.88;1.75;;;24.50;78.30;;;;;;5087651;28;20051;-31
2023/07/10 09:16:24;;;;;;;3.30;1.85;;;24.40;77.50;;;;;;5081793;28;20133;-32
2023/07/10 09:18:53;;;;;;;3.80;1.88;;;24.30;73.10;;;;;;5085643;28;20071;-31
2023/07/10 09:21:22;;;;;;;2.40;1.80;;;24.20;74.30;;;;;;5087994;28;20127;-31
2023/07/10 09:23:49;;;;;;;3.10;1.92;;;24.40;77.30;;;;;;5093769;28;20043;-30
2023/07/10 09:26:17;;;;;;;3.40;1.88;;;24.00;77.00;;;;;;5098421;28;20150;-37
2023/07/10 09:28:46;;;;;;;3.60;2.05;;;25.60;78.20;;;;;;5096648;28;20085;-39
2023/07/10 09:31:19;;;;;;;3.42;1.88;;;24.50;62.70;;;;;;5090786;28;20569;-39
2023/07/10 09:33:51;;;;;;;2.60;1.65;;;25.40;69.40;;;;;;5081762;28;20133;-37
2023/07/10 09:36:19;;;;;;;2.40;1.67;;;24.80;77.80;;;;;;5080920;28;20050;-39
2023/07/10 09:38:48;;;;;;;3.70;1.60;;;24.40;69.00;;;;;;5096624;28;20044;-37
2023/07/10 09:41:20;;;;;;;2.58;1.60;;;24.70;66.60;;;;;;5097005;28;20471;-39
2023/07/10 09:43:53;;;;;;;3.00;1.70;;;24.40;77.30;;;;;;5096822;28;20052;-39
2023/07/10 09:46:23;;;;;;;3.55;1.65;;;24.70;62.30;;;;;;5097149;28;20052;-37
2023/07/10 09:48:51;;;;;;;2.22;1.42;;;24.20;64.50;;;;;;5077855;28;20045;-38
2023/07/10 09:51:17;;;;;;;3.60;1.60;;;25.50;77.20;;;;;;5077416;28;20044;-40
2023/07/10 09:53:46;;;;;;;2.60;1.60;;;24.80;71.80;;;;;;5092148;28;20130;-39
2023/07/10 09:56:22;;;;;;;2.35;1.70;;;24.90;76.90;;;;;;5098192;28;20048;-40
2023/07/10 09:58:49;;;;;;;3.38;1.77;;;25.00;76.80;;;;;;5098245;28;20526;-40
2023/07/10 10:01:16;;;;;;;2.53;1.55;;;;;;;;;;5098418;28;20055;-35
2023/07/10 10:03:43;;;;;;;2.20;1.40;;;;;;;;;;5093845;28;20048;-39
2023/07/10 10:06:19;;;;;;;3.47;1.50;;;24.70;62.20;;;;;;5086049;28;20230;-36
2023/07/10 10:08:47;;;;;;;2.42;1.60;;;24.70;62.20;;;;;;5077884;28;20121;-36
2023/07/10 10:11:13;;;;;;;2.13;1.63;;;24.30;76.50;;;;;;5078059;28;20052;-40
2023/07/10 10:13:43;;;;;;;2.83;1.77;;;24.70;62.20;;;;;;5077806;28;20123;-35
2023/07/10 10:16:17;;;;;;;3.10;1.80;;;24.80;62.30;;;;;;5077801;28;20068;-40
2023/07/10 10:18:46;;;;;;;2.53;1.55;;;24.60;77.40;;;;;;5077893;28;20131;-40
2023/07/10 10:21:14;;;;;;;2.10;1.50;;;24.80;62.30;;;;;;5088679;28;20135;-38
2023/07/10 10:23:42;;;;;;;2.50;1.40;;;25.70;69.30;;;;;;5094892;28;20048;-39
2023/07/10 10:26:33;;;;;;;2.85;1.70;;;24.70;62.10;;;;;;5094757;28;20570;-37
2023/07/10 10:29:39;;;;;;;2.85;1.60;;;24.70;77.30;;;;;;5087807;28;20059;-40
2023/07/10 10:32:14;;;;;;;1.92;1.27;;;24.90;76.90;;;;;;5094796;28;20142;-40
2023/07/10 10:34:45;;;;;;;2.10;1.40;;;24.80;62.20;;;;;;5094921;28;20051;-38
2023/07/10 10:37:21;;;;;;;2.80;1.40;;;24.40;62.40;;;;;;5082489;28;20487;-33
2023/07/10 10:39:52;;;;;;;2.88;1.50;;;24.90;76.50;;;;;;5074311;28;20575;-33
2023/07/10 10:42:22;;;;;;;2.25;1.40;;;25.20;76.70;;;;;;5074290;28;20049;-33
2023/07/10 10:44:52;;;;;;;2.22;1.25;;;24.80;62.10;;;;;;5073995;28;20127;-33
2023/07/10 10:47:30;;;;;;;2.67;1.52;;;24.70;62.10;;;;;;5074363;28;20066;-35
2023/07/10 10:50:42;;;;;;;2.30;1.23;;;23.80;75.90;;;;;;5072916;28;20136;-32
2023/07/10 10:53:16;;;;;;;2.83;1.50;;;24.80;76.60;;;;;;5052232;28;20048;-32
2023/07/10 10:55:47;;;;;;;2.88;1.48;;;24.70;77.20;;;;;;5094098;28;20130;-33
2023/07/10 10:58:20;;;;;;;2.42;1.60;;;24.80;62.10;;;;;;5085041;28;20120;-32
2023/07/10 11:01:00;;;;;;;1.65;1.40;;;24.90;62.10;;;;;;5081455;28;20147;-32
2023/07/10 11:03:30;;;;;;;2.05;1.33;;;24.90;76.70;;;;;;5073101;28;20131;-31
2023/07/10 11:05:58;;;;;;;3.03;1.48;;;25.00;76.50;;;;;;5076030;28;20055;-32
2023/07/10 11:08:28;;;;;;;1.95;1.52;;;25.50;77.00;;;;;;5082027;28;20471;-33
2023/07/10 11:10:55;;;;;;;2.40;1.40;;;24.80;76.00;;;;;;5083809;28;20142;-32
2023/07/10 11:13:26;;;;;;;2.25;1.30;;;24.90;76.30;;;;;;5084013;28;20127;-32
2023/07/10 11:15:52;;;;;;;3.13;1.40;;;25.20;62.90;;;;;;5078855;28;20127;-35
2023/07/10 11:18:19;;;;;;;1.83;1.30;;;24.30;76.20;;;;;;5076373;28;20042;-32
2023/07/10 11:20:47;;;;;;;1.85;1.20;;;24.90;76.70;;;;;;5082648;28;20044;-31
2023/07/10 11:23:31;;;;;;;2.58;1.20;;;25.30;67.70;;;;;;5082392;28;20131;-32
2023/07/10 11:26:02;;;;;;;2.10;1.20;;;25.00;61.80;;;;;;5073921;28;20342;-33
2023/07/10 11:28:31;;;;;;;2.40;1.40;;;24.80;70.40;;;;;;5081966;28;20072;-33
2023/07/10 11:31:19;;;;;;;2.10;1.40;;;24.70;76.60;;;;;;5080680;28;20052;-32
2023/07/10 11:33:51;;;;;;;2.08;1.20;;;26.10;76.80;;;;;;5083463;28;20055;-32
2023/07/10 11:36:22;;;;;;;2.40;1.20;;;25.50;76.40;;;;;;5073924;28;20055;-36
2023/07/10 11:38:58;;;;;;;2.22;1.40;;;25.00;61.70;;;;;;5082889;28;20042;-35
2023/07/10 11:41:27;;;;;;;3.28;1.40;;;25.00;61.70;;;;;;5083999;28;20146;-36
2023/07/10 11:44:15;;;;;;;2.42;1.50;;;25.60;76.60;;;;;;5080204;28;20500;-31
2023/07/10 11:47:00;;;;;;;2.22;1.10;;;25.20;76.10;;;;;;5057282;28;20123;-31
2023/07/10 11:49:28;;;;;;;1.60;1.25;;;;;;;;;;5072342;28;20048;-35
2023/07/10 11:52:28;;;;;;;2.72;1.40;;;24.00;75.50;;;;;;5072252;28;20045;-32
2023/07/10 11:55:03;;;;;;;2.25;1.20;;;24.90;76.30;;;;;;5072782;28;20055;-32
2023/07/10 11:57:30;;;;;;;3.22;1.55;;;25.60;64.30;;;;;;5071888;28;20128;-33
2023/07/10 11:59:58;;;;;;;2.05;1.30;;;24.20;75.70;;;;;;5077974;28;20122;-32
2023/07/10 12:02:36;;;;;;;2.38;1.40;;;25.00;61.60;;;;;;5081709;28;20043;-32
2023/07/10 12:05:13;;;;;;;2.50;1.20;;;25.00;61.70;;;;;;5080815;28;20074;-32
2023/07/10 12:07:52;;;;;;;2.28;1.33;;;24.90;76.20;;;;;;5072626;28;20127;-31
2023/07/10 12:10:18;;;;;;;2.00;1.30;;;24.70;76.20;;;;;;5085131;28;20047;-30
2023/07/10 12:12:45;;;;;;;2.45;1.40;;;;;;;;;;5092565;28;20060;-39
2023/07/10 12:15:12;;;;;;;1.92;1.20;;;24.20;64.40;;;;;;5092743;28;20050;-37
2023/07/10 12:17:40;;;;;;;2.17;1.30;;;24.30;75.50;;;;;;5085493;28;20629;-40
2023/07/10 12:20:18;;;;;;;2.63;1.52;;;25.30;64.50;;;;;;5078977;28;20126;-38
2023/07/10 12:22:46;;;;;;;1.73;1.30;;;;;;;;;;5092369;28;20154;-40
2023/07/10 12:25:15;;;;;;;2.58;1.30;;;25.10;61.70;;;;;;5092643;28;20052;-36
2023/07/10 12:27:42;;;;;;;2.10;1.50;;;25.00;76.20;;;;;;5092578;28;20472;-38
2023/07/10 12:30:18;;;;;;;1.75;1.20;;;25.00;72.80;;;;;;5092197;28;20511;-39
2023/07/10 12:32:45;;;;;;;1.63;1.38;;;;;;;;;;5092532;28;20052;-36
2023/07/10 12:35:17;;;;;;;2.13;1.15;;;25.10;61.60;;;;;;5089332;28;20461;-39
2023/07/10 12:37:45;;;;;;;1.55;1.20;;;25.50;76.50;;;;;;5082259;28;20050;-39
2023/07/10 12:40:16;;;;;;;2.88;1.40;;;25.00;75.90;;;;;;5092036;28;20048;-36
2023/07/10 12:42:44;;;;;;;1.92;1.30;;;25.00;61.60;;;;;;5091107;28;20083;-35
2023/07/10 12:45:17;;;;;;;2.35;1.30;;;24.30;75.40;;;;;;5092077;28;20501;-39
2023/07/10 12:47:45;;;;;;;2.03;1.20;;;24.80;75.80;;;;;;5092251;28;20552;-36
2023/07/10 12:50:12;;;;;;;2.25;1.38;;;25.80;76.60;;;;;;5091466;28;20048;-38
2023/07/10 12:52:39;;;;;;;2.00;1.40;;;25.30;77.00;;;;;;5091827;28;20135;-38
2023/07/10 12:55:06;;;;;;;2.03;1.20;;;25.00;61.70;;;;;;5092306;28;20055;-36
2023/07/10 12:57:35;;;;;;;2.42;1.35;;;24.90;76.00;;;;;;5091781;28;20052;-39
2023/07/10 13:00:04;;;;;;;1.75;1.20;;;25.00;61.70;;;;;;5092218;28;20127;-35
2023/07/10 13:02:37;;;;;;;2.55;1.30;;;25.00;61.70;;;;;;5091666;28;20560;-35
2023/07/10 13:05:06;;;;;;;2.28;1.30;;;24.40;62.00;;;;;;5090716;28;20398;-36
2023/07/10 13:07:34;;;;;;;2.95;1.40;;;;;;;;;;5091338;28;20123;-38
2023/07/10 13:10:04;;;;;;;2.20;1.15;;;25.10;76.60;;;;;;5091295;28;20382;-36